createdAt,value
2023-03-26T00:00:11.210Z,83.24
2023-03-26T00:02:45.384Z,83.52
2023-03-26T00:04:38.482Z,83.42
2023-03-26T00:06:36.854Z,83.41
2023-03-26T00:08:29.869Z,83.72
2023-03-26T00:10:22.696Z,83.64
2023-03-26T00:12:15.542Z,83.55
2023-03-26T00:14:13.841Z,83.45
2023-03-26T00:16:07.263Z,83.30
2023-03-26T00:18:00.816Z,83.25
2023-03-26T00:19:53.732Z,83.23
2023-03-26T00:21:48.433Z,83.09
2023-03-26T00:23:42.317Z,83.09
2023-03-26T00:25:41.426Z,82.92
2023-03-26T00:27:34.214Z,83.01
2023-03-26T00:29:27.997Z,82.86
2023-03-26T00:31:21.267Z,82.80
2023-03-26T00:33:17.409Z,82.77
2023-03-26T00:35:11.167Z,82.78
2023-03-26T00:37:04.427Z,82.83
2023-03-26T00:38:57.268Z,82.77
2023-03-26T00:40:51.662Z,82.92
2023-03-26T00:42:44.616Z,83.12
2023-03-26T00:44:37.446Z,83.20
2023-03-26T00:46:32.041Z,83.17
2023-03-26T00:48:42.220Z,83.29
2023-03-26T00:50:38.133Z,83.31
2023-03-26T00:52:31.869Z,83.30
2023-03-26T00:54:25.021Z,83.35
2023-03-26T00:56:19.034Z,83.27
2023-03-26T00:58:13.464Z,83.41
2023-03-26T01:00:15.423Z,83.34
2023-03-26T01:02:12.720Z,83.19
2023-03-26T01:04:24.290Z,83.19
2023-03-26T01:06:27.826Z,83.15
2023-03-26T01:08:26.862Z,82.98
2023-03-26T01:10:22.879Z,83.02
2023-03-26T01:12:20.847Z,82.89
2023-03-26T01:14:23.876Z,82.95
2023-03-26T01:16:24.944Z,82.87
2023-03-26T01:18:22.242Z,82.97
2023-03-26T01:20:30.628Z,83.05
2023-03-26T01:22:26.605Z,83.16
2023-03-26T01:24:19.458Z,83.26
2023-03-26T01:26:32.391Z,83.25
2023-03-26T01:28:30.991Z,83.24
2023-03-26T01:30:35.012Z,83.22
2023-03-26T01:32:38.116Z,83.20
2023-03-26T01:34:49.983Z,83.20
2023-03-26T01:36:56.645Z,83.26
2023-03-26T01:39:09.702Z,83.47
2023-03-26T01:41:14.796Z,83.03
2023-03-26T01:43:32.014Z,83.00
2023-03-26T01:45:30.874Z,83.24
2023-03-26T01:47:24.381Z,83.84
2023-03-26T01:49:18.776Z,84.24
2023-03-26T01:51:13.493Z,84.39
2023-03-26T01:53:09.326Z,84.54
2023-03-26T01:55:03.116Z,84.57
2023-03-26T01:57:38.051Z,84.63
2023-03-26T01:59:52.400Z,84.67
2023-03-26T02:02:05.019Z,84.80
2023-03-26T02:04:16.903Z,84.80
2023-03-26T02:06:18.300Z,84.90
2023-03-26T02:08:22.843Z,84.77
2023-03-26T02:10:23.803Z,84.83
2023-03-26T02:12:17.875Z,84.70
2023-03-26T02:14:11.208Z,84.71
2023-03-26T02:16:07.619Z,84.70
2023-03-26T02:18:02.220Z,84.62
2023-03-26T02:19:55.213Z,84.52
2023-03-26T02:21:51.530Z,84.58
2023-03-26T02:23:47.649Z,84.51
2023-03-26T02:25:42.129Z,84.42
2023-03-26T02:27:36.824Z,84.47
2023-03-26T02:29:29.975Z,84.32
2023-03-26T02:31:26.653Z,84.31
2023-03-26T02:33:21.714Z,84.18
2023-03-26T02:35:14.593Z,83.99
2023-03-26T02:37:08.627Z,83.90
2023-03-26T02:39:01.677Z,83.86
2023-03-26T02:40:56.572Z,83.78
2023-03-26T02:42:51.970Z,83.72
2023-03-26T02:44:44.926Z,83.75
2023-03-26T02:46:46.681Z,83.50
2023-03-26T02:48:59.595Z,83.51
2023-03-26T02:50:54.772Z,83.32
2023-03-26T02:52:59.928Z,83.42
2023-03-26T02:54:53.655Z,83.33
2023-03-26T02:56:48.516Z,83.30
2023-03-26T02:58:50.651Z,83.43
2023-03-26T03:00:44.998Z,83.39
2023-03-26T03:03:14.324Z,83.42
2023-03-26T03:05:12.914Z,83.25
2023-03-26T03:07:06.071Z,83.37
2023-03-26T03:08:59.335Z,83.31
2023-03-26T03:11:10.414Z,83.43
2023-03-26T03:13:08.782Z,83.57
2023-03-26T03:15:01.622Z,83.43
2023-03-26T03:16:54.579Z,83.45
2023-03-26T03:18:54.648Z,83.31
2023-03-26T03:20:48.245Z,83.37
2023-03-26T03:22:41.508Z,83.38
2023-03-26T03:24:38.853Z,83.35
2023-03-26T03:26:32.120Z,83.29
2023-03-26T03:28:30.797Z,83.24
2023-03-26T03:30:23.739Z,83.25
2023-03-26T03:32:20.170Z,83.18
2023-03-26T03:34:13.842Z,83.06
2023-03-26T03:36:20.762Z,83.05
2023-03-26T03:38:21.136Z,83.10
2023-03-26T03:40:15.721Z,83.13
2023-03-26T03:42:09.034Z,83.02
2023-03-26T03:44:02.231Z,83.16
2023-03-26T03:45:57.140Z,83.15
2023-03-26T03:48:01.500Z,82.92
2023-03-26T03:50:01.472Z,82.93
2023-03-26T03:51:55.785Z,83.11
2023-03-26T03:53:57.610Z,83.14
2023-03-26T03:56:24.328Z,83.14
2023-03-26T03:58:37.282Z,83.18
2023-03-26T04:00:38.382Z,83.12
2023-03-26T04:02:54.455Z,83.12
2023-03-26T04:04:50.432Z,83.21
2023-03-26T04:06:46.313Z,82.98
2023-03-26T04:08:39.975Z,82.89
2023-03-26T04:10:33.334Z,82.95
2023-03-26T04:12:38.265Z,82.92
2023-03-26T04:14:31.626Z,82.83
2023-03-26T04:16:27.160Z,82.72
2023-03-26T04:18:20.490Z,82.97
2023-03-26T04:20:16.259Z,82.61
2023-03-26T04:22:12.178Z,82.51
2023-03-26T04:24:14.282Z,82.48
2023-03-26T04:26:41.839Z,82.49
2023-03-26T04:28:49.148Z,82.41
2023-03-26T04:30:54.655Z,82.16
2023-03-26T04:32:58.773Z,82.10
2023-03-26T04:34:53.468Z,82.10
2023-03-26T04:36:51.607Z,82.04
2023-03-26T04:38:49.432Z,81.91
2023-03-26T04:40:47.602Z,81.88
2023-03-26T04:43:00.085Z,82.00
2023-03-26T04:45:18.651Z,81.92
2023-03-26T04:47:12.288Z,81.77
2023-03-26T04:49:10.573Z,81.76
2023-03-26T04:51:03.565Z,81.91
2023-03-26T04:52:57.572Z,81.74
2023-03-26T04:55:33.649Z,81.80
2023-03-26T04:57:38.782Z,81.68
2023-03-26T04:59:35.725Z,81.86
2023-03-26T05:01:31.103Z,81.86
2023-03-26T05:03:24.175Z,81.73
2023-03-26T05:05:17.942Z,81.56
2023-03-26T05:07:16.626Z,81.47
2023-03-26T05:09:14.514Z,81.44
2023-03-26T05:11:25.975Z,81.29
2023-03-26T05:13:19.077Z,81.34
2023-03-26T05:15:15.554Z,81.26
2023-03-26T05:17:21.474Z,81.39
2023-03-26T05:19:15.171Z,81.17
2023-03-26T05:21:08.332Z,81.09
2023-03-26T05:23:02.196Z,81.39
2023-03-26T05:24:57.187Z,81.29
2023-03-26T05:26:52.185Z,81.10
2023-03-26T05:28:48.411Z,81.14
2023-03-26T05:30:47.090Z,80.91
2023-03-26T05:32:40.501Z,80.99
2023-03-26T05:34:33.498Z,81.17
2023-03-26T05:36:28.591Z,81.27
2023-03-26T05:38:59.949Z,81.12
2023-03-26T05:41:26.802Z,80.99
2023-03-26T05:43:19.842Z,80.68
2023-03-26T05:45:28.049Z,80.77
2023-03-26T05:47:21.202Z,80.41
2023-03-26T05:49:14.150Z,80.09
2023-03-26T05:51:08.126Z,80.03
2023-03-26T05:53:01.589Z,80.05
2023-03-26T05:55:13.685Z,79.96
2023-03-26T05:57:42.770Z,80.02
2023-03-26T06:00:09.005Z,80.32
2023-03-26T06:02:11.631Z,79.87
2023-03-26T06:04:13.855Z,79.86
2023-03-26T06:06:18.700Z,79.68
2023-03-26T06:08:19.743Z,80.01
2023-03-26T06:10:18.181Z,79.96
2023-03-26T06:12:13.495Z,79.87
2023-03-26T06:14:07.254Z,79.99
2023-03-26T06:16:01.355Z,79.77
2023-03-26T06:17:59.983Z,79.96
2023-03-26T06:20:22.143Z,79.88
2023-03-26T06:22:17.346Z,79.65
2023-03-26T06:24:37.342Z,79.46
2023-03-26T06:26:50.053Z,79.32
2023-03-26T06:28:56.607Z,79.68
2023-03-26T06:31:25.143Z,79.88
2023-03-26T06:33:37.607Z,79.19
2023-03-26T06:35:31.870Z,79.31
2023-03-26T06:37:24.834Z,79.27
2023-03-26T06:39:23.198Z,79.13
2023-03-26T06:41:25.365Z,79.45
2023-03-26T06:43:39.203Z,79.14
2023-03-26T06:45:52.938Z,78.96
2023-03-26T06:48:05.122Z,78.88
2023-03-26T06:50:21.337Z,79.05
2023-03-26T06:52:32.819Z,78.61
2023-03-26T06:54:44.091Z,78.61
2023-03-26T06:57:00.151Z,78.59
2023-03-26T06:59:26.513Z,77.86
2023-03-26T07:01:38.282Z,76.86
2023-03-26T07:03:57.351Z,77.09
2023-03-26T07:06:13.663Z,77.12
2023-03-26T07:08:21.470Z,77.03
2023-03-26T07:10:33.489Z,76.81
2023-03-26T07:12:35.412Z,76.08
2023-03-26T07:14:48.742Z,75.95
2023-03-26T07:17:08.329Z,76.16
2023-03-26T07:19:39.878Z,76.29
2023-03-26T07:21:33.333Z,76.23
2023-03-26T07:23:27.295Z,75.18
2023-03-26T07:25:33.043Z,74.91
2023-03-26T07:28:24.448Z,74.59
2023-03-26T07:31:07.597Z,74.65
2023-03-26T07:33:18.565Z,74.41
2023-03-26T07:35:32.646Z,74.07
2023-03-26T07:38:08.353Z,73.63
2023-03-26T07:40:39.496Z,72.51
2023-03-26T07:43:21.183Z,73.19
2023-03-26T07:45:23.578Z,73.60
2023-03-26T07:47:37.524Z,73.45
2023-03-26T07:50:07.733Z,73.41
2023-03-26T07:52:19.207Z,73.40
2023-03-26T07:54:32.534Z,73.12
2023-03-26T07:57:02.418Z,73.14
2023-03-26T07:59:35.020Z,73.39
2023-03-26T08:02:02.477Z,73.77
2023-03-26T08:04:28.064Z,73.02
2023-03-26T08:06:50.843Z,72.67
2023-03-26T08:09:29.144Z,73.13
2023-03-26T08:11:53.633Z,73.33
2023-03-26T08:13:46.376Z,73.44
2023-03-26T08:15:53.694Z,73.30
2023-03-26T08:18:13.646Z,73.02
2023-03-26T08:20:26.275Z,72.43
2023-03-26T08:22:26.510Z,72.77
2023-03-26T08:24:36.698Z,72.82
2023-03-26T08:26:57.636Z,71.71
2023-03-26T08:29:09.619Z,71.25
2023-03-26T08:31:03.136Z,70.75
2023-03-26T08:33:13.812Z,70.45
2023-03-26T08:35:09.445Z,69.06
2023-03-26T08:37:02.615Z,68.16
2023-03-26T08:38:57.606Z,68.60
2023-03-26T08:41:19.660Z,68.89
2023-03-26T08:43:31.119Z,68.19
2023-03-26T08:45:54.275Z,69.09
2023-03-26T08:48:29.083Z,69.48
2023-03-26T08:50:51.851Z,69.49
2023-03-26T08:53:08.057Z,70.40
2023-03-26T08:55:21.064Z,69.68
2023-03-26T08:57:47.499Z,69.72
2023-03-26T09:00:15.644Z,69.01
2023-03-26T09:02:50.840Z,68.70
2023-03-26T09:05:22.159Z,67.98
2023-03-26T09:07:46.344Z,68.28
2023-03-26T09:10:02.219Z,67.39
2023-03-26T09:12:28.360Z,66.05
2023-03-26T09:14:28.157Z,64.64
2023-03-26T09:16:46.248Z,65.03
2023-03-26T09:19:14.579Z,65.26
2023-03-26T09:21:32.307Z,64.67
2023-03-26T09:23:43.483Z,63.45
2023-03-26T09:25:53.839Z,64.01
2023-03-26T09:28:09.724Z,63.66
2023-03-26T09:31:04.549Z,63.86
2023-03-26T09:33:18.873Z,63.75
2023-03-26T09:35:39.601Z,64.32
2023-03-26T09:37:57.081Z,64.79
2023-03-26T09:40:17.490Z,64.73
2023-03-26T09:42:23.369Z,64.49
2023-03-26T09:44:54.892Z,64.29
2023-03-26T09:47:25.346Z,64.54
2023-03-26T09:49:39.064Z,64.00
2023-03-26T09:51:57.806Z,64.47
2023-03-26T09:54:21.890Z,63.64
2023-03-26T09:56:31.651Z,63.19
2023-03-26T09:58:43.767Z,62.79
2023-03-26T10:00:48.358Z,63.52
2023-03-26T10:03:06.640Z,63.15
2023-03-26T10:05:00.488Z,62.86
2023-03-26T10:07:01.734Z,63.84
2023-03-26T10:09:22.807Z,64.04
2023-03-26T10:11:54.360Z,63.49
2023-03-26T10:14:01.537Z,63.47
2023-03-26T10:16:20.327Z,63.10
2023-03-26T10:18:27.329Z,63.16
2023-03-26T10:20:43.813Z,62.38
2023-03-26T10:22:57.916Z,61.82
2023-03-26T10:25:31.122Z,61.98
2023-03-26T10:27:37.369Z,61.24
2023-03-26T10:30:16.170Z,62.24
2023-03-26T10:32:22.580Z,62.17
2023-03-26T10:34:37.823Z,62.37
2023-03-26T10:36:36.543Z,63.94
2023-03-26T10:39:06.449Z,64.77
2023-03-26T10:41:17.038Z,65.78
2023-03-26T10:43:49.762Z,67.44
2023-03-26T10:46:38.138Z,68.64
2023-03-26T10:48:36.075Z,69.92
2023-03-26T10:50:49.809Z,70.73
2023-03-26T10:53:21.261Z,72.27
2023-03-26T10:55:24.296Z,72.66
2023-03-26T10:57:45.852Z,72.15
2023-03-26T10:59:38.711Z,72.30
2023-03-26T11:01:46.769Z,72.09
2023-03-26T11:03:46.093Z,71.17
2023-03-26T11:05:38.990Z,70.27
2023-03-26T11:07:43.239Z,70.47
2023-03-26T11:09:45.452Z,70.52
2023-03-26T11:12:25.727Z,70.42
2023-03-26T11:14:45.886Z,71.09
2023-03-26T11:17:40.900Z,71.32
2023-03-26T11:19:37.631Z,71.59
2023-03-26T11:21:36.432Z,71.64
2023-03-26T11:23:47.908Z,70.77
2023-03-26T11:26:16.782Z,69.82
2023-03-26T11:28:33.798Z,68.90
2023-03-26T11:30:45.279Z,67.56
2023-03-26T11:32:46.174Z,67.65
2023-03-26T11:34:59.825Z,66.65
2023-03-26T11:36:58.938Z,66.22
2023-03-26T11:38:56.738Z,64.10
2023-03-26T11:40:57.363Z,64.58
2023-03-26T11:43:13.538Z,63.51
2023-03-26T11:45:14.730Z,63.42
2023-03-26T11:47:15.352Z,61.28
2023-03-26T11:49:12.545Z,61.36
2023-03-26T11:51:23.185Z,60.37
2023-03-26T11:53:19.455Z,59.79
2023-03-26T11:55:13.198Z,60.14
2023-03-26T11:57:13.126Z,59.73
2023-03-26T11:59:15.369Z,59.68
2023-03-26T12:01:22.857Z,59.71
2023-03-26T12:03:17.205Z,59.69
2023-03-26T12:05:18.217Z,60.13
2023-03-26T12:07:18.063Z,59.57
2023-03-26T12:09:19.667Z,59.45
2023-03-26T12:11:14.633Z,60.57
2023-03-26T12:13:36.585Z,60.43
2023-03-26T12:15:32.257Z,60.83
2023-03-26T12:17:32.226Z,60.36
2023-03-26T12:19:29.143Z,61.18
2023-03-26T12:21:22.514Z,61.32
2023-03-26T12:23:45.803Z,60.91
2023-03-26T12:25:40.331Z,61.01
2023-03-26T12:27:33.393Z,61.59
2023-03-26T12:29:29.110Z,62.30
2023-03-26T12:31:28.651Z,62.78
2023-03-26T12:33:34.863Z,63.18
2023-03-26T12:35:31.301Z,64.16
2023-03-26T12:37:37.255Z,65.77
2023-03-26T12:40:09.671Z,67.24
2023-03-26T12:44:43.383Z,68.56
2023-03-26T12:44:55.339Z,68.87
2023-03-26T12:47:59.157Z,68.86
2023-03-26T12:49:06.265Z,68.57
2023-03-26T12:51:14.802Z,68.06
2023-03-26T12:57:50.408Z,68.11
2023-03-26T13:10:47.297Z,66.79
2023-03-26T13:12:50.793Z,66.98
2023-03-26T13:15:04.539Z,66.36
2023-03-26T13:17:39.946Z,65.39
2023-03-26T13:19:45.096Z,65.51
2023-03-26T13:22:12.474Z,64.76
2023-03-26T13:24:31.726Z,64.58
2023-03-26T13:27:02.094Z,63.80
2023-03-26T13:29:08.761Z,63.59
2023-03-26T13:31:10.626Z,63.75
2023-03-26T13:33:26.362Z,63.88
2023-03-26T13:35:31.975Z,62.79
2023-03-26T13:37:32.945Z,62.96
2023-03-26T13:39:41.128Z,63.39
2023-03-26T13:41:42.398Z,63.08
2023-03-26T13:43:48.458Z,67.14
2023-03-26T13:45:57.715Z,65.95
2023-03-26T13:47:55.760Z,64.20
2023-03-26T13:49:54.654Z,61.49
2023-03-26T13:52:03.199Z,61.83
2023-03-26T13:54:12.743Z,61.17
2023-03-26T13:56:10.334Z,61.89
2023-03-26T13:58:14.763Z,62.26
2023-03-26T14:00:28.445Z,62.41
2023-03-26T14:02:35.939Z,62.62
2023-03-26T14:04:34.465Z,62.17
2023-03-26T14:06:46.879Z,62.78
2023-03-26T14:08:46.298Z,62.85
2023-03-26T14:10:54.537Z,62.38
2023-03-26T14:13:16.093Z,62.35
2023-03-26T14:15:20.530Z,62.08
2023-03-26T14:17:39.195Z,60.75
2023-03-26T14:19:53.916Z,61.02
2023-03-26T14:22:12.672Z,60.32
2023-03-26T14:24:23.562Z,60.52
2023-03-26T14:26:48.756Z,60.05
2023-03-26T14:28:56.949Z,60.07
2023-03-26T14:31:08.247Z,60.21
2023-03-26T14:33:28.198Z,60.38
2023-03-26T14:35:28.865Z,60.12
2023-03-26T14:37:34.685Z,60.16
2023-03-26T14:39:57.538Z,60.25
2023-03-26T14:41:53.742Z,59.36
2023-03-26T14:43:55.719Z,58.94
2023-03-26T14:46:07.718Z,58.81
2023-03-26T14:48:36.902Z,59.39
2023-03-26T14:51:25.674Z,59.65
2023-03-26T14:53:27.864Z,59.57
2023-03-26T14:55:33.395Z,59.45
2023-03-26T14:57:35.646Z,59.60
2023-03-26T14:59:59.692Z,59.66
2023-03-26T15:02:27.080Z,58.95
2023-03-26T15:04:42.280Z,58.49
2023-03-26T15:06:45.340Z,58.10
2023-03-26T15:08:48.727Z,57.67
2023-03-26T15:11:14.149Z,57.92
2023-03-26T15:13:22.038Z,58.23
2023-03-26T15:16:10.820Z,58.78
2023-03-26T15:18:54.836Z,58.88
2023-03-26T15:21:25.102Z,58.72
2023-03-26T15:23:39.817Z,58.85
2023-03-26T15:26:11.383Z,59.16
2023-03-26T15:28:23.062Z,59.69
2023-03-26T15:30:21.671Z,59.68
2023-03-26T15:32:40.638Z,59.84
2023-03-26T15:34:56.378Z,59.86
2023-03-26T15:37:10.898Z,59.88
2023-03-26T15:39:58.628Z,60.34
2023-03-26T15:42:21.311Z,60.09
2023-03-26T15:44:23.012Z,59.03
2023-03-26T15:46:56.808Z,59.68
2023-03-26T15:49:11.858Z,60.26
2023-03-26T15:51:07.958Z,60.17
2023-03-26T15:53:26.915Z,60.18
2023-03-26T15:55:37.577Z,60.43
2023-03-26T15:57:36.365Z,60.32
2023-03-26T15:59:53.098Z,60.11
2023-03-26T16:02:04.069Z,60.20
2023-03-26T16:04:09.693Z,59.95
2023-03-26T16:06:18.913Z,59.75
2023-03-26T16:08:18.749Z,59.37
2023-03-26T16:10:28.655Z,59.62
2023-03-26T16:12:32.145Z,59.34
2023-03-26T16:14:43.668Z,59.53
2023-03-26T16:16:53.696Z,59.31
2023-03-26T16:19:21.828Z,58.97
2023-03-26T16:21:34.851Z,58.80
2023-03-26T16:23:30.030Z,58.73
2023-03-26T16:25:48.536Z,58.99
2023-03-26T16:27:41.486Z,58.86
2023-03-26T16:30:00.051Z,59.22
2023-03-26T16:32:28.801Z,58.63
2023-03-26T16:34:29.018Z,58.75
2023-03-26T16:36:35.598Z,59.03
2023-03-26T16:38:50.319Z,59.31
2023-03-26T16:41:01.248Z,59.64
2023-03-26T16:43:14.351Z,60.03
2023-03-26T16:45:34.442Z,60.52
2023-03-26T16:47:42.837Z,60.74
2023-03-26T16:50:08.644Z,61.22
2023-03-26T16:52:19.848Z,61.20
2023-03-26T16:54:24.476Z,61.46
2023-03-26T16:56:33.489Z,61.41
2023-03-26T16:58:46.823Z,61.38
2023-03-26T17:01:07.942Z,61.56
2023-03-26T17:03:29.054Z,61.66
2023-03-26T17:05:30.914Z,61.74
2023-03-26T17:07:54.867Z,62.05
2023-03-26T17:10:15.907Z,61.95
2023-03-26T17:12:42.901Z,61.65
2023-03-26T17:14:55.662Z,61.91
2023-03-26T17:17:05.877Z,62.07
2023-03-26T17:19:06.607Z,61.86
2023-03-26T17:21:46.265Z,61.82
2023-03-26T17:24:15.251Z,61.73
2023-03-26T17:26:41.410Z,61.80
2023-03-26T17:28:48.799Z,61.81
2023-03-26T17:31:26.590Z,61.95
2023-03-26T17:33:25.385Z,62.18
2023-03-26T17:35:34.693Z,62.49
2023-03-26T17:37:43.513Z,62.52
2023-03-26T17:39:40.490Z,62.63
2023-03-26T17:41:55.923Z,62.96
2023-03-26T17:43:52.274Z,63.07
2023-03-26T17:46:02.781Z,63.10
2023-03-26T17:48:03.645Z,63.27
2023-03-26T17:50:07.242Z,63.48
2023-03-26T17:52:17.313Z,63.46
2023-03-26T17:54:20.991Z,63.63
2023-03-26T17:56:26.752Z,63.77
2023-03-26T17:58:37.813Z,64.16
2023-03-26T18:01:16.304Z,64.17
2023-03-26T18:03:31.153Z,64.35
2023-03-26T18:05:29.477Z,64.36
2023-03-26T18:07:45.253Z,64.66
2023-03-26T18:10:13.131Z,64.82
2023-03-26T18:12:42.463Z,65.05
2023-03-26T18:14:52.779Z,65.32
2023-03-26T18:16:49.949Z,65.61
2023-03-26T18:18:51.153Z,65.53
2023-03-26T18:20:47.179Z,65.70
2023-03-26T18:22:41.313Z,65.80
2023-03-26T18:24:40.558Z,66.12
2023-03-26T18:26:38.542Z,66.39
2023-03-26T18:28:41.612Z,66.53
2023-03-26T18:30:47.307Z,66.60
2023-03-26T18:33:00.153Z,66.79
2023-03-26T18:34:57.918Z,67.03
2023-03-26T18:37:11.413Z,67.19
2023-03-26T18:39:05.325Z,67.33
2023-03-26T18:41:00.299Z,67.64
2023-03-26T18:42:57.684Z,67.69
2023-03-26T18:44:52.276Z,67.86
2023-03-26T18:46:45.928Z,68.05
2023-03-26T18:48:39.518Z,68.32
2023-03-26T18:50:38.699Z,68.44
2023-03-26T18:52:32.347Z,68.60
2023-03-26T18:54:32.242Z,68.60
2023-03-26T18:56:43.159Z,68.90
2023-03-26T18:58:39.659Z,68.82
2023-03-26T19:00:33.739Z,69.17
2023-03-26T19:02:27.782Z,69.20
2023-03-26T19:04:26.804Z,69.36
2023-03-26T19:06:20.983Z,69.46
2023-03-26T19:08:17.409Z,69.59
2023-03-26T19:10:18.910Z,69.60
2023-03-26T19:12:29.885Z,69.94
2023-03-26T19:14:25.019Z,70.11
2023-03-26T19:16:25.892Z,70.25
2023-03-26T19:18:28.794Z,70.34
2023-03-26T19:20:24.963Z,70.56
2023-03-26T19:22:21.193Z,70.73
2023-03-26T19:24:16.592Z,70.84
2023-03-26T19:26:11.322Z,70.93
2023-03-26T19:28:06.317Z,71.03
2023-03-26T19:30:05.074Z,71.09
2023-03-26T19:32:19.824Z,71.24
2023-03-26T19:34:34.935Z,71.44
2023-03-26T19:36:34.593Z,71.62
2023-03-26T19:38:30.203Z,71.70
2023-03-26T19:40:30.237Z,71.86
2023-03-26T19:42:43.618Z,71.91
2023-03-26T19:44:39.673Z,71.91
2023-03-26T19:48:56.956Z,72.38
2023-03-26T19:51:06.649Z,72.51
2023-03-26T19:51:18.356Z,72.12
2023-03-26T19:53:16.024Z,72.61
2023-03-26T19:55:21.939Z,72.79
2023-03-26T19:57:15.522Z,72.82
2023-03-26T19:59:09.511Z,72.65
2023-03-26T20:01:06.605Z,72.66
2023-03-26T20:03:01.743Z,72.89
2023-03-26T20:04:54.769Z,72.90
2023-03-26T20:06:49.970Z,72.95
2023-03-26T20:08:43.940Z,73.01
2023-03-26T20:10:36.890Z,72.94
2023-03-26T20:12:29.731Z,72.92
2023-03-26T20:14:28.982Z,73.14
2023-03-26T20:16:27.083Z,73.47
2023-03-26T20:18:21.586Z,73.67
2023-03-26T20:20:16.377Z,73.82
2023-03-26T20:22:16.460Z,73.91
2023-03-26T20:24:14.637Z,74.12
2023-03-26T20:26:13.506Z,74.35
2023-03-26T20:28:09.672Z,74.43
2023-03-26T20:30:07.338Z,74.51
2023-03-26T20:32:03.973Z,74.80
2023-03-26T20:34:02.138Z,74.77
2023-03-26T20:35:57.866Z,74.84
2023-03-26T20:37:51.608Z,74.88
2023-03-26T20:39:45.794Z,74.95
2023-03-26T20:41:45.018Z,75.05
2023-03-26T20:43:37.927Z,75.19
2023-03-26T20:45:30.876Z,75.29
2023-03-26T20:47:24.826Z,75.48
2023-03-26T20:49:18.401Z,75.44
2023-03-26T20:51:15.757Z,75.50
2023-03-26T20:53:16.492Z,75.67
2023-03-26T20:55:13.914Z,75.62
2023-03-26T20:57:06.854Z,75.62
2023-03-26T20:59:10.628Z,75.54
2023-03-26T21:01:04.356Z,75.46
2023-03-26T21:02:57.659Z,75.52
2023-03-26T21:04:50.665Z,75.53
2023-03-26T21:06:44.557Z,75.70
2023-03-26T21:08:38.419Z,75.71
2023-03-26T21:10:31.766Z,75.89
2023-03-26T21:12:33.537Z,75.94
2023-03-26T21:14:40.719Z,76.04
2023-03-26T21:16:34.378Z,76.23
2023-03-26T21:18:28.029Z,76.34
2023-03-26T21:20:22.837Z,76.50
2023-03-26T21:22:53.471Z,76.50
2023-03-26T21:25:22.501Z,76.67
2023-03-26T21:27:52.230Z,76.76
2023-03-26T21:29:46.971Z,76.81
2023-03-26T21:31:41.195Z,76.89
2023-03-26T21:33:35.448Z,77.01
2023-03-26T21:35:30.007Z,76.99
2023-03-26T21:37:23.809Z,77.28
2023-03-26T21:39:17.015Z,77.43
2023-03-26T21:41:28.085Z,78.05
2023-03-26T21:43:22.364Z,78.40
2023-03-26T21:45:16.035Z,78.44
2023-03-26T21:47:09.951Z,78.52
2023-03-26T21:49:03.676Z,78.65
2023-03-26T21:51:02.654Z,78.83
2023-03-26T21:52:56.859Z,79.06
2023-03-26T21:54:50.830Z,79.06
2023-03-26T21:57:13.082Z,78.87
2023-03-26T21:59:24.527Z,79.07
2023-03-26T22:01:43.848Z,78.91
2023-03-26T22:04:17.089Z,78.77
2023-03-26T22:06:21.602Z,78.69
2023-03-26T22:08:31.522Z,78.76
2023-03-26T22:10:24.705Z,78.66
2023-03-26T22:12:17.859Z,78.65
2023-03-26T22:14:13.368Z,78.73
2023-03-26T22:16:08.822Z,78.68
2023-03-26T22:18:03.752Z,78.77
2023-03-26T22:19:57.027Z,78.88
2023-03-26T22:21:51.182Z,78.87
2023-03-26T22:23:50.189Z,78.92
2023-03-26T22:25:43.556Z,78.88
2023-03-26T22:27:44.155Z,78.81
2023-03-26T22:29:37.842Z,78.87
2023-03-26T22:31:31.256Z,78.83
2023-03-26T22:33:24.248Z,78.98
2023-03-26T22:35:17.274Z,78.87
2023-03-26T22:37:10.146Z,78.90
2023-03-26T22:39:03.097Z,78.96
2023-03-26T22:40:58.013Z,78.98
2023-03-26T22:42:51.449Z,79.08
2023-03-26T22:44:44.292Z,79.00
2023-03-26T22:46:37.961Z,79.03
2023-03-26T22:48:32.153Z,78.91
2023-03-26T22:50:26.008Z,78.90
2023-03-26T22:52:18.901Z,78.86
2023-03-26T22:54:11.798Z,78.73
2023-03-26T22:56:05.359Z,78.71
2023-03-26T22:57:58.419Z,78.69
2023-03-26T22:59:52.174Z,78.62
2023-03-26T23:01:45.618Z,78.65
2023-03-26T23:03:39.512Z,78.53
2023-03-26T23:05:32.966Z,78.56
2023-03-26T23:07:25.811Z,78.51
2023-03-26T23:09:18.661Z,78.49
2023-03-26T23:11:13.994Z,78.57
2023-03-26T23:13:06.809Z,78.43
2023-03-26T23:15:00.892Z,78.51
2023-03-26T23:16:53.831Z,78.47
2023-03-26T23:18:47.804Z,78.38
2023-03-26T23:20:42.806Z,78.41
2023-03-26T23:22:35.645Z,78.43
2023-03-26T23:24:30.154Z,78.39
2023-03-26T23:26:24.208Z,78.35
2023-03-26T23:28:17.772Z,78.38
2023-03-26T23:30:11.483Z,78.34
2023-03-26T23:32:23.559Z,78.38
2023-03-26T23:34:18.633Z,78.33
2023-03-26T23:36:13.921Z,78.37
2023-03-26T23:38:07.008Z,78.31
2023-03-26T23:40:00.572Z,78.21
2023-03-26T23:41:53.493Z,78.21
2023-03-26T23:43:55.943Z,78.20
2023-03-26T23:45:50.573Z,78.30
2023-03-26T23:47:43.529Z,78.29
2023-03-26T23:49:37.473Z,78.28
2023-03-26T23:51:31.348Z,78.24
2023-03-26T23:53:28.076Z,78.29
2023-03-26T23:55:20.923Z,78.41
2023-03-26T23:57:13.984Z,78.30
2023-03-26T23:59:07.027Z,78.22
